Time;durP1;ratioP1;P1;durP2;ratioP2;P2;SDS_P1;SDS_P2;PMS_P1;PMS_P2;Temp;Humidity;BMP_temperature;BMP_pressure;BME280_temperature;BME280_humidity;BME280_pressure;Samples;Min_cycle;Max_cycle;Signal;HPM_P1;HPM_P2
2022/10/09 00:00:44;;;;;;;15.45;4.85;;;8.10;99.90;;;;;;5092612;28;20044;-61
2022/10/09 00:03:11;;;;;;;14.95;4.43;;;8.10;99.90;;;;;;5110776;28;20494;-60
2022/10/09 00:05:38;;;;;;;11.18;4.63;;;8.10;99.90;;;;;;5112670;28;20145;-60
2022/10/09 00:08:05;;;;;;;10.48;4.47;;;8.10;99.90;;;;;;5095021;28;20112;-60
2022/10/09 00:10:32;;;;;;;14.82;4.65;;;8.10;99.90;;;;;;5113186;28;20055;-60
2022/10/09 00:13:00;;;;;;;14.18;4.05;;;8.10;99.90;;;;;;5112833;28;20047;-60
2022/10/09 00:15:27;;;;;;;9.98;4.53;;;8.10;99.90;;;;;;5113512;28;20171;-60
2022/10/09 00:17:54;;;;;;;14.98;4.53;;;8.10;99.90;;;;;;5113285;28;20052;-60
2022/10/09 00:20:20;;;;;;;8.90;3.85;;;8.00;99.90;;;;;;5112492;28;20453;-61
2022/10/09 00:22:47;;;;;;;10.00;4.55;;;8.00;99.90;;;;;;5095515;28;20055;-61
2022/10/09 00:25:14;;;;;;;10.68;4.38;;;8.00;99.90;;;;;;5112785;28;20047;-60
2022/10/09 00:27:41;;;;;;;10.20;4.75;;;8.00;99.90;;;;;;5094422;28;20388;-61
2022/10/09 00:30:10;;;;;;;11.90;4.55;;;8.00;99.90;;;;;;5095005;28;20100;-61
2022/10/09 00:32:37;;;;;;;10.18;3.88;;;7.90;99.90;;;;;;5111755;28;20047;-61
2022/10/09 00:35:05;;;;;;;10.15;4.18;;;7.90;99.90;;;;;;5112971;28;20089;-60
2022/10/09 00:37:31;;;;;;;12.57;4.28;;;7.90;99.90;;;;;;5094935;28;20108;-60
2022/10/09 00:39:58;;;;;;;10.23;4.00;;;7.90;99.90;;;;;;5094389;28;20100;-60
2022/10/09 00:42:25;;;;;;;13.30;4.00;;;7.80;99.90;;;;;;5113364;28;20043;-60
2022/10/09 00:44:56;;;;;;;7.55;4.05;;;7.80;99.90;;;;;;5113311;28;20128;-59
2022/10/09 00:47:26;;;;;;;;;;;7.80;99.90;;;;;;5112614;28;20055;-60
2022/10/09 00:49:55;;;;;;;9.07;4.35;;;7.80;99.90;;;;;;5113099;28;20366;-60
2022/10/09 00:52:25;;;;;;;7.63;3.85;;;7.70;99.90;;;;;;5094980;28;20097;-60
2022/10/09 00:54:53;;;;;;;13.60;4.38;;;7.70;99.90;;;;;;5094302;28;20108;-60
2022/10/09 00:57:20;;;;;;;10.23;4.50;;;7.70;99.90;;;;;;5094598;28;20113;-60
2022/10/09 00:59:47;;;;;;;9.45;3.97;;;7.70;99.90;;;;;;5113252;28;20048;-60
2022/10/09 01:02:14;;;;;;;11.07;4.45;;;7.70;99.90;;;;;;5112193;28;20047;-61
2022/10/09 01:04:43;;;;;;;8.13;4.25;;;7.60;99.90;;;;;;5113309;28;20100;-59
2022/10/09 01:07:33;;;;;;;12.43;4.68;;;7.60;99.90;;;;;;5094820;28;20109;-60
2022/10/09 01:10:05;;;;;;;12.82;5.78;;;7.60;99.90;;;;;;5112977;28;20503;-60
2022/10/09 01:12:45;;;;;;;7.80;3.58;;;7.60;99.90;;;;;;5112745;28;20124;-60
2022/10/09 01:15:18;;;;;;;15.80;4.85;;;7.60;99.90;;;;;;5112228;28;20039;-60
2022/10/09 01:17:52;;;;;;;11.98;4.15;;;7.50;99.90;;;;;;5112895;28;20044;-61
2022/10/09 01:20:30;;;;;;;7.93;3.78;;;7.50;99.90;;;;;;5094976;28;20116;-61
2022/10/09 01:23:12;;;;;;;9.77;3.95;;;7.50;99.90;;;;;;5112828;28;20047;-60
2022/10/09 01:25:49;;;;;;;8.77;3.85;;;7.50;99.90;;;;;;5116527;28;20068;-60
2022/10/09 01:28:20;;;;;;;8.00;3.55;;;7.50;99.90;;;;;;5116370;28;20568;-59
2022/10/09 01:30:48;;;;;;;11.13;4.13;;;7.50;99.90;;;;;;5097343;28;20116;-60
2022/10/09 01:33:16;;;;;;;8.48;3.55;;;7.40;99.90;;;;;;5116382;28;20104;-62
2022/10/09 01:35:46;;;;;;;11.48;4.55;;;7.40;99.90;;;;;;5097624;28;20056;-61
2022/10/09 01:38:14;;;;;;;11.82;5.00;;;7.40;99.90;;;;;;5116432;28;20052;-61
2022/10/09 01:40:42;;;;;;;13.82;4.90;;;7.40;99.90;;;;;;5098302;28;20117;-61
2022/10/09 01:43:09;;;;;;;7.65;4.03;;;7.30;99.90;;;;;;5096884;28;20100;-60
2022/10/09 01:45:42;;;;;;;10.70;4.55;;;7.30;99.90;;;;;;5116042;28;20491;-61
2022/10/09 01:48:14;;;;;;;5.35;3.65;;;7.30;99.90;;;;;;5116137;28;20048;-61
2022/10/09 01:50:44;;;;;;;10.75;4.55;;;7.30;99.90;;;;;;5115395;28;20512;-61
2022/10/09 01:53:14;;;;;;;7.28;3.70;;;7.30;99.90;;;;;;5116245;28;20055;-61
2022/10/09 01:55:44;;;;;;;;;;;7.20;99.90;;;;;;5098470;28;20121;-61
2022/10/09 01:58:18;;;;;;;8.85;3.92;;;7.20;99.90;;;;;;5097144;28;19927;-60
2022/10/09 02:00:50;;;;;;;10.05;3.55;;;7.20;99.90;;;;;;5115855;28;20104;-61
2022/10/09 02:03:18;;;;;;;8.18;4.10;;;7.10;99.90;;;;;;5116325;28;20047;-61
2022/10/09 02:05:47;;;;;;;9.50;4.13;;;7.10;99.90;;;;;;5097148;28;20442;-61
2022/10/09 02:08:18;;;;;;;8.82;3.92;;;7.10;99.90;;;;;;5115849;28;20412;-61
2022/10/09 02:10:48;;;;;;;7.43;3.42;;;7.10;99.90;;;;;;5097671;28;20415;-60
2022/10/09 02:13:15;;;;;;;13.53;4.13;;;7.10;99.90;;;;;;5097299;28;20056;-61
2022/10/09 02:15:47;;;;;;;6.97;3.90;;;7.00;99.90;;;;;;5115964;28;20061;-61
2022/10/09 02:18:19;;;;;;;7.15;3.88;;;7.00;99.90;;;;;;5114840;28;20052;-60
2022/10/09 02:20:51;;;;;;;7.40;3.60;;;7.00;99.90;;;;;;5115826;28;20052;-60
2022/10/09 02:23:20;;;;;;;10.57;4.07;;;7.00;99.90;;;;;;5097589;28;20052;-61
2022/10/09 02:25:47;;;;;;;10.43;4.28;;;6.90;99.90;;;;;;5114536;28;20089;-61
2022/10/09 02:28:14;;;;;;;10.13;4.55;;;6.90;99.90;;;;;;5115434;28;20047;-60
2022/10/09 02:30:51;;;;;;;8.55;4.65;;;6.90;99.90;;;;;;5115448;28;20112;-61
2022/10/09 02:33:17;;;;;;;12.45;3.97;;;6.90;99.90;;;;;;5114525;28;20105;-61
2022/10/09 02:35:46;;;;;;;12.13;4.75;;;6.90;99.90;;;;;;5115291;28;20084;-60
2022/10/09 02:38:13;;;;;;;9.93;4.60;;;6.90;99.90;;;;;;5115008;28;20131;-61
2022/10/09 02:40:40;;;;;;;11.93;4.60;;;6.90;99.90;;;;;;5114297;28;20571;-60
2022/10/09 02:43:07;;;;;;;9.20;4.10;;;6.90;99.90;;;;;;5114779;28;20104;-61
2022/10/09 02:45:34;;;;;;;8.13;5.68;;;6.90;99.90;;;;;;5115055;28;20503;-61
2022/10/09 02:48:02;;;;;;;10.60;5.25;;;6.90;99.90;;;;;;5096078;28;20063;-60
2022/10/09 02:50:29;;;;;;;11.90;5.15;;;6.90;99.90;;;;;;5114699;28;20452;-60
2022/10/09 02:52:55;;;;;;;12.05;4.93;;;6.90;99.90;;;;;;5096518;28;20107;-60
2022/10/09 02:55:22;;;;;;;12.50;5.13;;;6.80;99.90;;;;;;5096081;28;20482;-60
2022/10/09 02:57:49;;;;;;;13.15;5.95;;;6.90;99.90;;;;;;5096799;28;20052;-60
2022/10/09 03:00:16;;;;;;;13.02;4.75;;;6.80;99.90;;;;;;5096044;28;20116;-60
2022/10/09 03:02:43;;;;;;;14.00;5.63;;;6.80;99.90;;;;;;5114951;28;20445;-61
2022/10/09 03:05:11;;;;;;;10.77;4.53;;;6.80;99.90;;;;;;5096827;28;20384;-61
2022/10/09 03:07:38;;;;;;;9.00;4.32;;;6.80;99.90;;;;;;5113486;28;20571;-61
2022/10/09 03:10:06;;;;;;;7.45;4.30;;;6.80;99.90;;;;;;5114781;28;20560;-60
2022/10/09 03:12:33;;;;;;;7.93;4.70;;;6.70;99.90;;;;;;5114690;28;20085;-59
2022/10/09 03:14:59;;;;;;;12.48;4.75;;;6.70;99.90;;;;;;5095600;28;20051;-60
2022/10/09 03:17:26;;;;;;;9.18;4.60;;;6.70;99.90;;;;;;5095822;28;20040;-61
2022/10/09 03:19:53;;;;;;;14.07;5.40;;;6.70;99.90;;;;;;5114453;28;20384;-61
2022/10/09 03:22:21;;;;;;;14.93;4.65;;;6.70;99.90;;;;;;5113457;28;20491;-60
2022/10/09 03:24:48;;;;;;;14.10;4.82;;;6.70;99.90;;;;;;5096414;28;20051;-61
2022/10/09 03:27:15;;;;;;;13.95;5.10;;;6.60;99.90;;;;;;5096068;28;20487;-61
2022/10/09 03:29:42;;;;;;;10.40;4.60;;;6.60;99.90;;;;;;5113331;28;20571;-61
2022/10/09 03:32:09;;;;;;;13.93;4.65;;;6.60;99.90;;;;;;5096258;28;20043;-60
2022/10/09 03:34:35;;;;;;;10.20;4.53;;;6.60;99.90;;;;;;5095921;28;20499;-59
2022/10/09 03:37:02;;;;;;;8.52;5.07;;;6.50;99.90;;;;;;5094636;28;20156;-60
2022/10/09 03:39:31;;;;;;;12.80;4.68;;;6.50;99.90;;;;;;5114218;28;20491;-60
2022/10/09 03:41:58;;;;;;;12.57;5.20;;;6.60;99.90;;;;;;5114204;28;20296;-61
2022/10/09 03:44:25;;;;;;;9.00;4.45;;;6.50;99.90;;;;;;5113256;28;20048;-60
2022/10/09 03:46:52;;;;;;;13.15;5.25;;;6.50;99.90;;;;;;5094954;28;20114;-61
2022/10/09 03:49:19;;;;;;;7.80;4.55;;;6.50;99.90;;;;;;5114176;28;20070;-61
2022/10/09 03:51:46;;;;;;;8.10;4.55;;;6.50;99.90;;;;;;5114176;28;20102;-61
2022/10/09 03:54:12;;;;;;;13.68;5.50;;;6.50;99.90;;;;;;5113990;28;20093;-60
2022/10/09 03:56:41;;;;;;;11.13;5.28;;;6.50;99.90;;;;;;5094749;28;20048;-61
2022/10/09 03:59:08;;;;;;;12.27;5.25;;;6.50;99.90;;;;;;5104135;28;20074;-61
2022/10/09 04:01:35;;;;;;;11.43;5.40;;;6.50;99.90;;;;;;5094185;28;20056;-60
2022/10/09 04:04:02;;;;;;;11.88;5.47;;;6.50;99.90;;;;;;5112494;28;20502;-60
2022/10/09 04:06:29;;;;;;;9.40;4.55;;;6.50;99.90;;;;;;5113680;28;20406;-61
2022/10/09 04:08:56;;;;;;;9.55;5.95;;;6.50;99.90;;;;;;5113611;28;20047;-59
2022/10/09 04:11:23;;;;;;;10.18;5.75;;;6.50;99.90;;;;;;5112599;28;20054;-60
2022/10/09 04:13:51;;;;;;;10.63;6.15;;;6.50;99.90;;;;;;5113323;28;20051;-62
2022/10/09 04:16:18;;;;;;;11.10;5.75;;;6.50;99.90;;;;;;5112768;28;20104;-61
2022/10/09 04:18:46;;;;;;;12.18;5.75;;;6.40;99.90;;;;;;5094530;28;20059;-61
2022/10/09 04:21:13;;;;;;;14.52;6.70;;;6.40;99.90;;;;;;5113612;28;20138;-61
2022/10/09 04:23:40;;;;;;;14.18;6.50;;;6.40;99.90;;;;;;5113536;28;20047;-61
2022/10/09 04:26:07;;;;;;;16.10;6.78;;;6.40;99.90;;;;;;5094639;28;20051;-60
2022/10/09 04:28:34;;;;;;;12.57;5.75;;;6.40;99.90;;;;;;5113012;28;20108;-61
2022/10/09 04:31:03;;;;;;;12.70;5.65;;;6.40;99.90;;;;;;5095119;28;20060;-61
2022/10/09 04:33:30;;;;;;;11.68;5.40;;;6.30;99.90;;;;;;5094496;28;20102;-60
2022/10/09 04:35:57;;;;;;;12.75;6.32;;;6.30;99.90;;;;;;5113366;28;20040;-60
2022/10/09 04:38:25;;;;;;;13.10;6.20;;;6.30;99.90;;;;;;5113130;28;20453;-60
2022/10/09 04:40:59;;;;;;;14.32;6.53;;;6.30;99.90;;;;;;5094210;28;20052;-60
2022/10/09 04:43:26;;;;;;;9.55;5.78;;;6.20;99.90;;;;;;5095032;28;20486;-61
2022/10/09 04:45:53;;;;;;;15.55;6.32;;;6.30;99.90;;;;;;5094415;28;20055;-60
2022/10/09 04:48:22;;;;;;;12.30;5.95;;;6.20;99.90;;;;;;5094966;28;20495;-60
2022/10/09 04:50:49;;;;;;;13.88;6.85;;;6.20;99.90;;;;;;5095134;28;20116;-60
2022/10/09 04:53:15;;;;;;;11.98;6.28;;;6.20;99.90;;;;;;5112376;28;20055;-61
2022/10/09 04:55:43;;;;;;;11.52;5.97;;;6.10;99.90;;;;;;5095101;28;20059;-61
2022/10/09 04:58:11;;;;;;;11.70;6.72;;;6.10;99.90;;;;;;5097894;28;20052;-60
2022/10/09 05:00:40;;;;;;;14.75;7.38;;;6.10;99.90;;;;;;5116437;28;20048;-61
2022/10/09 05:03:07;;;;;;;13.07;6.72;;;6.10;99.90;;;;;;5099040;28;20139;-61
2022/10/09 05:05:35;;;;;;;11.32;6.43;;;6.10;99.90;;;;;;5098810;28;20047;-61
2022/10/09 05:08:02;;;;;;;14.65;6.43;;;6.00;99.90;;;;;;5115909;28;20055;-62
2022/10/09 05:10:30;;;;;;;11.68;7.90;;;6.00;99.90;;;;;;5099101;28;20552;-61
2022/10/09 05:12:57;;;;;;;11.00;6.88;;;6.00;99.90;;;;;;5116827;28;20043;-61
2022/10/09 05:15:24;;;;;;;17.48;6.80;;;6.00;99.90;;;;;;5116294;28;20047;-61
2022/10/09 05:17:51;;;;;;;20.38;8.90;;;6.00;99.90;;;;;;5098459;28;20119;-60
2022/10/09 05:20:21;;;;;;;16.03;8.50;;;6.00;99.90;;;;;;5116971;28;20051;-61
2022/10/09 05:22:49;;;;;;;15.30;9.55;;;6.00;99.90;;;;;;5116069;28;20453;-60
2022/10/09 05:25:16;;;;;;;22.90;9.20;;;6.00;99.90;;;;;;5116978;28;20043;-61
2022/10/09 05:27:43;;;;;;;16.38;9.45;;;6.00;99.90;;;;;;5116578;28;20055;-61
2022/10/09 05:30:11;;;;;;;18.58;9.60;;;6.00;99.90;;;;;;5097451;28;20055;-61
2022/10/09 05:32:38;;;;;;;20.02;10.18;;;6.00;99.90;;;;;;5098576;28;20055;-60
2022/10/09 05:35:05;;;;;;;19.98;10.02;;;6.00;99.90;;;;;;5097691;28;20048;-60
2022/10/09 05:37:32;;;;;;;14.43;9.25;;;6.00;99.90;;;;;;5116262;28;20100;-61
2022/10/09 05:40:00;;;;;;;16.67;9.07;;;5.90;99.90;;;;;;5098466;28;20048;-61
2022/10/09 05:42:27;;;;;;;15.63;9.00;;;6.00;99.90;;;;;;5115714;28;20044;-61
2022/10/09 05:44:54;;;;;;;17.35;9.95;;;5.90;99.90;;;;;;5098147;28;20051;-61
2022/10/09 05:47:20;;;;;;;17.17;9.05;;;5.90;99.90;;;;;;5116022;28;20055;-61
2022/10/09 05:49:47;;;;;;;14.85;8.70;;;5.90;99.90;;;;;;5115416;28;20055;-61
2022/10/09 05:52:14;;;;;;;18.15;9.52;;;5.90;99.90;;;;;;5116276;28;20048;-60
2022/10/09 05:54:41;;;;;;;16.90;9.20;;;5.90;99.90;;;;;;5116242;28;20453;-61
2022/10/09 05:57:10;;;;;;;14.88;8.88;;;5.90;99.90;;;;;;5096754;28;20048;-61
2022/10/09 05:59:37;;;;;;;12.73;8.45;;;5.90;99.90;;;;;;5098076;28;20055;-61
2022/10/09 06:02:04;;;;;;;12.88;9.20;;;5.90;99.90;;;;;;5116319;28;20066;-60
2022/10/09 06:04:31;;;;;;;20.80;8.45;;;5.90;99.90;;;;;;5096917;28;20487;-61
2022/10/09 06:10:38;;;;;;;20.42;8.65;;;5.90;99.90;;;;;;5094527;28;20058;-61
2022/10/09 06:13:06;;;;;;;12.23;8.35;;;5.90;99.90;;;;;;5095586;28;20048;-60
2022/10/09 06:15:33;;;;;;;12.75;8.60;;;5.90;99.90;;;;;;5095435;28;20052;-60
2022/10/09 06:18:00;;;;;;;11.82;8.68;;;5.90;99.90;;;;;;5110250;28;20408;-60
2022/10/09 06:20:27;;;;;;;13.68;8.60;;;6.00;99.90;;;;;;5111340;28;20113;-60
2022/10/09 06:22:54;;;;;;;16.00;8.35;;;6.00;99.90;;;;;;5110826;28;20048;-61
2022/10/09 06:25:20;;;;;;;17.60;8.48;;;6.10;99.90;;;;;;5109630;28;20487;-59
2022/10/09 06:27:47;;;;;;;18.00;9.15;;;6.10;99.90;;;;;;5095271;28;20098;-61
2022/10/09 06:30:16;;;;;;;12.68;8.32;;;6.10;99.90;;;;;;5095052;28;20064;-60
2022/10/09 06:32:42;;;;;;;16.00;8.73;;;6.20;99.90;;;;;;5093799;28;20055;-59
2022/10/09 06:35:10;;;;;;;15.73;8.38;;;6.40;99.90;;;;;;5095393;27;20101;-61
2022/10/09 06:37:36;;;;;;;14.02;8.43;;;6.40;99.90;;;;;;5103319;28;20077;-60
2022/10/09 06:40:04;;;;;;;14.30;8.50;;;6.50;99.90;;;;;;5088833;28;20564;-61
2022/10/09 06:42:30;;;;;;;15.10;8.13;;;6.50;99.90;;;;;;5089823;28;20056;-60
2022/10/09 06:44:57;;;;;;;12.60;7.43;;;6.60;99.90;;;;;;5087712;28;20151;-60
2022/10/09 06:47:25;;;;;;;16.33;8.60;;;6.60;99.90;;;;;;5085503;28;20395;-61
2022/10/09 06:49:52;;;;;;;11.27;7.72;;;6.80;99.90;;;;;;5107840;28;20093;-61
2022/10/09 06:52:19;;;;;;;12.07;7.82;;;6.80;99.90;;;;;;5106916;28;20051;-60
2022/10/09 06:54:46;;;;;;;13.85;8.38;;;6.90;99.90;;;;;;5087677;28;20483;-61
2022/10/09 06:57:13;;;;;;;10.82;7.70;;;7.00;99.90;;;;;;5103979;28;20134;-60
2022/10/09 06:59:40;;;;;;;11.48;7.63;;;7.20;99.90;;;;;;5092692;28;20043;-60
2022/10/09 07:02:06;;;;;;;16.15;8.32;;;7.40;99.90;;;;;;5090228;28;20575;-60
2022/10/09 07:04:35;;;;;;;13.10;7.50;;;7.50;99.90;;;;;;5104888;28;20051;-59
2022/10/09 07:07:02;;;;;;;14.82;8.38;;;7.70;99.90;;;;;;5105925;28;20058;-60
2022/10/09 07:09:28;;;;;;;11.07;7.82;;;8.40;99.90;;;;;;5087690;28;20426;-60
2022/10/09 07:11:55;;;;;;;11.10;6.97;;;9.90;99.90;;;;;;5106636;28;20043;-61
2022/10/09 07:14:22;;;;;;;13.02;7.20;;;11.30;99.90;;;;;;5105756;28;20044;-60
2022/10/09 07:16:49;;;;;;;8.85;6.10;;;12.70;99.90;;;;;;5104932;28;20043;-61
2022/10/09 07:19:17;;;;;;;9.50;6.15;;;13.80;99.90;;;;;;5106134;28;20043;-59
2022/10/09 07:21:47;;;;;;;9.55;6.72;;;14.50;99.90;;;;;;5085154;28;20124;-61
2022/10/09 07:24:14;;;;;;;9.40;7.30;;;15.10;99.90;;;;;;5103630;28;20115;-60
2022/10/09 07:26:43;;;;;;;12.15;7.57;;;15.40;99.90;;;;;;5103688;28;20047;-60
2022/10/09 07:29:12;;;;;;;11.13;8.00;;;15.30;99.90;;;;;;5103163;28;20176;-59
2022/10/09 07:31:39;;;;;;;12.65;8.70;;;15.50;99.90;;;;;;5103950;28;20093;-61
2022/10/09 07:34:06;;;;;;;17.58;9.60;;;15.50;99.90;;;;;;5088636;28;20518;-61
2022/10/09 07:36:33;;;;;;;12.45;8.05;;;15.90;99.90;;;;;;5101505;28;20608;-60
2022/10/09 07:39:02;;;;;;;10.88;7.18;;;16.50;99.90;;;;;;5106760;28;20097;-60
2022/10/09 07:41:30;;;;;;;9.60;7.22;;;17.20;99.90;;;;;;5085534;28;20100;-60
2022/10/09 07:43:57;;;;;;;13.07;7.00;;;17.60;99.90;;;;;;5106505;28;20138;-59
2022/10/09 07:46:26;;;;;;;10.95;6.30;;;18.20;99.90;;;;;;5105514;28;20109;-59
2022/10/09 07:48:53;;;;;;;9.43;6.95;;;18.70;99.90;;;;;;5108609;28;20530;-60
2022/10/09 07:51:21;;;;;;;8.10;6.43;;;18.90;99.90;;;;;;5104293;28;20049;-61
2022/10/09 07:53:48;;;;;;;8.38;6.55;;;19.20;99.90;;;;;;5102360;28;20044;-61
2022/10/09 07:56:18;;;;;;;9.75;5.85;;;19.20;99.90;;;;;;5101337;28;20098;-61
2022/10/09 07:58:49;;;;;;;9.15;6.97;;;19.60;99.90;;;;;;5084579;28;20048;-60
2022/10/09 08:01:16;;;;;;;9.15;5.40;;;20.00;99.90;;;;;;5104370;28;20130;-61
2022/10/09 08:03:43;;;;;;;10.18;5.60;;;20.40;99.90;;;;;;5107018;28;20039;-61
2022/10/09 08:06:10;;;;;;;7.53;5.38;;;21.00;99.80;;;;;;5104578;28;20143;-60
2022/10/09 08:08:37;;;;;;;8.75;5.20;;;21.20;99.10;;;;;;5083648;28;20463;-61
2022/10/09 08:11:09;;;;;;;6.57;5.13;;;21.70;97.90;;;;;;5084551;28;20051;-61
2022/10/09 08:13:38;;;;;;;11.52;5.80;;;22.00;96.50;;;;;;5103923;28;20483;-61
2022/10/09 08:16:06;;;;;;;7.85;4.72;;;22.20;95.80;;;;;;5103180;28;20449;-61
2022/10/09 08:18:33;;;;;;;7.13;4.53;;;22.10;95.00;;;;;;5090289;28;20097;-61
2022/10/09 08:21:01;;;;;;;7.60;4.30;;;22.80;94.60;;;;;;5106709;28;20051;-61
2022/10/09 08:23:28;;;;;;;6.65;3.97;;;22.80;93.70;;;;;;5084169;28;20043;-60
2022/10/09 08:25:55;;;;;;;6.60;3.70;;;23.00;93.40;;;;;;5103059;28;20052;-62
2022/10/09 08:28:23;;;;;;;7.20;3.22;;;22.80;92.80;;;;;;5084720;28;20056;-60
2022/10/09 08:30:51;;;;;;;6.45;2.70;;;23.10;92.50;;;;;;5101045;28;20052;-60
2022/10/09 08:33:20;;;;;;;5.65;2.85;;;23.70;90.10;;;;;;5088391;28;20097;-61
2022/10/09 08:35:47;;;;;;;6.63;2.67;;;23.30;91.10;;;;;;5086627;28;20395;-62
2022/10/09 08:38:14;;;;;;;5.45;2.50;;;23.70;91.00;;;;;;5104291;28;20055;-61
2022/10/09 08:40:50;;;;;;;6.60;2.88;;;24.00;90.40;;;;;;5105225;28;20047;-60
2022/10/09 08:43:22;;;;;;;8.07;2.78;;;24.30;86.90;;;;;;5093789;28;20056;-60
2022/10/09 08:45:51;;;;;;;5.85;2.80;;;24.60;87.80;;;;;;5084633;28;20059;-61
2022/10/09 08:48:22;;;;;;;6.13;2.97;;;24.90;87.30;;;;;;5104623;28;20039;-60
2022/10/09 08:50:53;;;;;;;7.63;2.72;;;24.80;83.90;;;;;;5102836;28;20521;-60
2022/10/09 08:53:30;;;;;;;6.35;2.45;;;24.40;83.60;;;;;;5081642;28;20051;-61
2022/10/09 08:55:59;;;;;;;4.38;2.30;;;24.80;83.40;;;;;;5091596;28;20059;-61
2022/10/09 08:58:30;;;;;;;5.43;2.58;;;25.10;84.90;;;;;;5086153;28;20089;-61
2022/10/09 09:01:03;;;;;;;6.45;2.30;;;25.30;81.80;;;;;;5102755;28;20102;-62
2022/10/09 09:03:45;;;;;;;8.52;2.70;;;25.40;80.40;;;;;;5092023;28;20445;-62
2022/10/09 09:06:17;;;;;;;3.85;1.95;;;25.20;79.30;;;;;;5090627;28;20044;-61
2022/10/09 09:08:51;;;;;;;4.80;2.15;;;25.20;81.50;;;;;;5091783;28;20556;-60
2022/10/09 09:11:27;;;;;;;6.65;1.90;;;25.60;80.30;;;;;;5094889;28;20051;-60
2022/10/09 09:14:03;;;;;;;4.32;2.17;;;25.60;80.30;;;;;;5091465;28;20044;-61
2022/10/09 09:16:41;;;;;;;6.40;2.35;;;25.40;79.80;;;;;;5075003;28;20131;-59
2022/10/09 09:19:37;;;;;;;3.80;1.95;;;25.70;77.60;;;;;;5073495;28;20097;-61
2022/10/09 09:22:08;;;;;;;5.38;1.92;;;26.10;78.50;;;;;;5073029;28;20113;-61
2022/10/09 09:24:40;;;;;;;7.00;2.10;;;26.00;79.20;;;;;;5090468;28;20552;-61
2022/10/09 09:27:12;;;;;;;5.35;2.33;;;26.30;78.50;;;;;;5089930;28;20048;-60
2022/10/09 09:29:42;;;;;;;6.10;1.77;;;26.20;75.40;;;;;;5089694;28;20055;-61
2022/10/09 09:32:17;;;;;;;5.07;1.83;;;26.20;77.80;;;;;;5076689;28;20056;-61
2022/10/09 09:34:44;;;;;;;5.72;1.50;;;26.40;76.00;;;;;;5077575;28;20483;-61
2022/10/09 09:37:12;;;;;;;3.90;1.83;;;26.40;76.00;;;;;;5089703;28;20055;-61
2022/10/09 09:39:39;;;;;;;5.03;1.50;;;26.00;76.20;;;;;;5097913;28;20496;-61
2022/10/09 09:42:14;;;;;;;6.15;1.98;;;26.20;76.30;;;;;;5090521;28;20052;-61
2022/10/09 09:44:45;;;;;;;4.97;1.80;;;26.10;76.00;;;;;;5096171;28;20039;-61
2022/10/09 09:47:18;;;;;;;6.57;1.90;;;26.10;74.20;;;;;;5089004;28;20095;-60
2022/10/09 09:49:54;;;;;;;5.85;1.92;;;25.80;74.90;;;;;;5112039;28;20101;-60
2022/10/09 09:52:22;;;;;;;8.38;1.90;;;26.00;74.30;;;;;;5084086;28;20051;-61
2022/10/09 09:54:49;;;;;;;7.28;2.42;;;26.00;74.70;;;;;;5088092;28;20113;-60
2022/10/09 09:57:28;;;;;;;5.03;2.17;;;26.10;75.00;;;;;;5095994;28;20048;-61
2022/10/09 10:00:07;;;;;;;6.63;1.93;;;26.00;73.00;;;;;;5077069;28;20426;-61
2022/10/09 10:02:35;;;;;;;6.57;1.75;;;26.40;73.60;;;;;;5094344;28;20544;-60
2022/10/09 10:05:14;;;;;;;4.50;1.48;;;26.10;74.50;;;;;;5076135;28;20403;-61
2022/10/09 10:07:41;;;;;;;5.95;1.80;;;26.10;74.30;;;;;;5094089;28;20181;-61
2022/10/09 10:10:15;;;;;;;5.30;2.20;;;26.20;74.20;;;;;;5094410;28;20044;-61
2022/10/09 10:12:44;;;;;;;5.32;1.75;;;26.30;73.90;;;;;;5090695;28;20048;-61
2022/10/09 10:15:19;;;;;;;5.07;1.60;;;26.20;73.60;;;;;;5107961;28;20094;-61
2022/10/09 10:17:48;;;;;;;4.63;1.70;;;26.10;72.70;;;;;;5092232;28;20540;-61
2022/10/09 10:20:16;;;;;;;6.95;1.80;;;26.00;73.30;;;;;;5076043;27;20061;-61
2022/10/09 10:22:46;;;;;;;5.13;1.80;;;26.10;73.50;;;;;;5082025;28;20093;-62
2022/10/09 10:25:17;;;;;;;5.38;1.90;;;25.70;73.00;;;;;;5096307;28;20102;-62
2022/10/09 10:27:48;;;;;;;5.78;1.60;;;26.10;73.40;;;;;;5083291;28;20518;-62
2022/10/09 10:30:18;;;;;;;4.38;1.40;;;26.30;73.20;;;;;;5113571;28;20056;-60
2022/10/09 10:32:54;;;;;;;5.00;1.70;;;26.00;72.10;;;;;;5104065;28;20565;-62
2022/10/09 10:35:24;;;;;;;4.53;1.55;;;26.00;72.50;;;;;;5080092;28;20052;-67
2022/10/09 10:37:58;;;;;;;5.00;1.83;;;26.00;73.10;;;;;;5082385;28;20402;-66
2022/10/09 10:40:28;;;;;;;7.22;1.70;;;26.00;73.40;;;;;;5087932;28;20047;-62
2022/10/09 10:43:06;;;;;;;4.50;1.55;;;26.30;72.50;;;;;;5098938;28;20495;-62
2022/10/09 10:45:38;;;;;;;5.30;1.73;;;26.40;71.40;;;;;;5091529;28;20555;-62
2022/10/09 10:48:11;;;;;;;4.35;1.58;;;25.70;72.70;;;;;;5092842;28;20052;-63
2022/10/09 10:50:46;;;;;;;4.53;1.60;;;26.00;72.40;;;;;;5075177;28;20052;-62
2022/10/09 10:53:22;;;;;;;7.10;1.70;;;26.20;72.20;;;;;;5091780;28;20462;-63
2022/10/09 10:55:54;;;;;;;7.55;1.95;;;26.40;72.60;;;;;;5082140;28;20124;-63
2022/10/09 10:58:27;;;;;;;5.15;1.67;;;26.70;72.40;;;;;;5113431;28;20047;-62
2022/10/09 11:01:09;;;;;;;4.88;1.75;;;26.80;71.10;;;;;;5085292;28;20056;-63
2022/10/09 11:04:00;;;;;;;3.45;1.20;;;27.00;69.30;;;;;;5112443;28;20567;-64
2022/10/09 11:06:36;;;;;;;5.25;1.60;;;27.20;68.80;;;;;;5094061;28;20117;-63
2022/10/09 11:09:11;;;;;;;5.50;2.10;;;27.30;67.90;;;;;;5095280;28;20043;-63
2022/10/09 11:11:42;;;;;;;3.53;1.27;;;27.30;68.80;;;;;;5113049;28;20047;-63
2022/10/09 11:14:19;;;;;;;6.75;1.50;;;26.80;68.60;;;;;;5093194;28;20093;-63
2022/10/09 11:16:56;;;;;;;5.25;1.42;;;26.70;67.60;;;;;;5112905;28;20426;-63
2022/10/09 11:19:50;;;;;;;6.90;1.52;;;26.90;68.50;;;;;;5112766;28;20044;-63
2022/10/09 11:22:32;;;;;;;9.18;1.80;;;27.30;67.00;;;;;;5112599;28;20059;-62
2022/10/09 11:25:14;;;;;;;4.10;1.30;;;27.40;66.60;;;;;;5112818;28;20117;-62
2022/10/09 11:27:47;;;;;;;4.65;1.30;;;27.30;66.90;;;;;;5111925;28;20502;-63
2022/10/09 11:30:16;;;;;;;6.68;1.90;;;27.10;67.00;;;;;;5112082;28;20556;-62
2022/10/09 11:32:54;;;;;;;4.13;1.52;;;26.70;67.10;;;;;;5112479;28;20134;-63
2022/10/09 11:35:24;;;;;;;4.60;1.38;;;26.70;67.10;;;;;;5093519;28;20480;-62
2022/10/09 11:37:58;;;;;;;4.88;1.45;;;26.90;66.90;;;;;;5112390;28;20055;-70
2022/10/09 11:40:32;;;;;;;6.15;1.50;;;26.80;65.90;;;;;;5094285;28;20619;-72
2022/10/09 11:43:07;;;;;;;4.57;1.08;;;27.00;66.20;;;;;;5093143;28;20097;-62
2022/10/09 11:45:40;;;;;;;4.75;1.35;;;27.10;66.50;;;;;;5112922;28;20044;-61
2022/10/09 11:48:15;;;;;;;6.68;1.63;;;26.30;66.40;;;;;;5111113;28;20077;-61
2022/10/09 11:50:52;;;;;;;4.05;1.20;;;25.40;67.10;;;;;;5112617;28;20445;-61
2022/10/09 11:53:22;;;;;;;4.40;1.45;;;25.50;68.90;;;;;;5094570;28;20048;-62
2022/10/09 11:55:49;;;;;;;;;;;25.70;68.70;;;;;;5094577;28;20067;-62
2022/10/09 11:58:23;;;;;;;5.72;1.30;;;25.70;68.10;;;;;;5094716;28;19974;-61
2022/10/09 12:00:53;;;;;;;5.38;1.30;;;26.20;67.60;;;;;;5113004;28;20056;-62
2022/10/09 12:03:28;;;;;;;3.97;1.50;;;26.10;68.50;;;;;;5094009;28;20048;-61
2022/10/09 12:06:06;;;;;;;4.97;1.35;;;26.40;67.90;;;;;;5095080;28;20076;-62
2022/10/09 12:08:33;;;;;;;5.40;1.65;;;26.60;66.00;;;;;;5093871;28;20056;-62
2022/10/09 12:11:10;;;;;;;3.70;1.38;;;26.50;67.00;;;;;;5112091;28;20494;-62
2022/10/09 12:13:48;;;;;;;5.20;1.65;;;26.60;65.10;;;;;;5112696;28;20547;-62
2022/10/09 12:16:35;;;;;;;5.43;2.00;;;26.80;65.60;;;;;;5111325;28;20930;-62
2022/10/09 12:19:04;;;;;;;4.47;2.05;;;26.80;64.40;;;;;;5112286;28;20543;-60
2022/10/09 12:21:39;;;;;;;4.57;1.58;;;26.90;65.70;;;;;;5112628;28;20044;-61
2022/10/09 12:24:13;;;;;;;3.85;1.50;;;27.20;65.70;;;;;;5110843;28;20112;-61
2022/10/09 12:26:41;;;;;;;6.32;2.33;;;27.20;66.20;;;;;;5112355;28;20495;-61
2022/10/09 12:29:19;;;;;;;6.65;1.98;;;27.70;64.90;;;;;;5112191;28;20123;-61
2022/10/09 12:31:50;;;;;;;4.50;1.55;;;27.70;64.20;;;;;;5111618;28;20457;-61
2022/10/09 12:34:22;;;;;;;6.15;1.65;;;27.60;64.40;;;;;;5094003;28;20492;-60
2022/10/09 12:36:50;;;;;;;5.22;1.55;;;27.20;63.40;;;;;;5112180;28;20044;-61
2022/10/09 12:39:21;;;;;;;3.13;1.42;;;26.40;63.70;;;;;;5090237;28;20040;-61
2022/10/09 12:41:51;;;;;;;5.68;1.90;;;26.50;64.10;;;;;;5111978;28;20112;-61
2022/10/09 12:44:26;;;;;;;5.82;1.50;;;26.40;64.20;;;;;;5093311;28;20080;-61
2022/10/09 12:46:53;;;;;;;6.13;1.42;;;26.40;63.70;;;;;;5112311;28;20387;-62
2022/10/09 12:49:24;;;;;;;5.20;1.42;;;26.40;64.40;;;;;;5093847;28;20110;-61
2022/10/09 12:51:54;;;;;;;3.55;1.55;;;26.30;64.30;;;;;;5093391;28;20051;-62
2022/10/09 12:54:23;;;;;;;7.32;2.15;;;26.30;64.40;;;;;;5112070;28;20043;-62
2022/10/09 12:56:52;;;;;;;5.10;1.40;;;26.70;64.20;;;;;;5111986;28;20058;-61
2022/10/09 12:59:20;;;;;;;7.57;3.35;;;26.50;64.20;;;;;;5092239;28;20487;-61
2022/10/09 13:01:48;;;;;;;6.13;2.90;;;26.80;64.10;;;;;;5094195;28;20055;-60
2022/10/09 13:04:29;;;;;;;9.05;4.35;;;27.30;64.20;;;;;;5112129;28;20044;-60